Time;durP1;ratioP1;P1;durP2;ratioP2;P2;SDS_P1;SDS_P2;PMS_P1;PMS_P2;Temp;Humidity;BMP_temperature;BMP_pressure;BME280_temperature;BME280_humidity;BME280_pressure;Samples;Min_cycle;Max_cycle;Signal;HPM_P1;HPM_P2
2022/07/18 00:01:29;;;;;;;;;3.33;3.33;;;;;24.30;36.41;101720.72;5059162;28;45520;-72
2022/07/18 00:03:54;;;;;;;;;4.00;4.00;;;;;24.25;36.89;101709.78;5058551;28;45269;-72
2022/07/18 00:06:20;;;;;;;;;4.67;4.67;;;;;24.25;36.58;101719.81;5058684;28;45416;-72
2022/07/18 00:08:45;;;;;;;;;4.33;4.33;;;;;24.17;36.50;101721.84;5053579;28;45317;-72
2022/07/18 00:11:10;;;;;;;;;5.00;5.00;;;;;24.09;36.59;101701.31;5058543;28;45775;-72
2022/07/18 00:13:36;;;;;;;;;4.33;4.00;;;;;24.05;36.89;101716.44;5051420;28;46274;-72
2022/07/18 00:16:01;;;;;;;;;3.67;3.67;;;;;24.01;36.78;101718.00;5062281;28;46157;-72
2022/07/18 00:18:27;;;;;;;;;5.00;5.00;;;;;23.93;36.51;101702.06;5066574;28;45223;-72
2022/07/18 00:20:52;;;;;;;;;4.00;4.00;;;;;23.86;37.34;101698.69;5058483;28;45166;-72
2022/07/18 00:23:18;;;;;;;;;5.67;4.67;;;;;23.82;37.29;101699.16;5058445;28;45442;-72
2022/07/18 00:25:44;;;;;;;;;6.00;5.00;;;;;23.76;37.27;101700.13;5057859;28;46108;-72
2022/07/18 00:28:11;;;;;;;;;4.33;4.33;;;;;23.69;37.35;101696.72;5058567;28;45276;-72
2022/07/18 00:30:37;;;;;;;;;4.00;4.00;;;;;23.65;37.41;101707.25;5058614;28;45289;-72
2022/07/18 00:33:02;;;;;;;;;3.33;3.33;;;;;23.58;37.45;101692.97;5058457;28;45388;-72
2022/07/18 00:35:28;;;;;;;;;5.00;5.00;;;;;23.56;38.16;101698.63;5050237;28;46926;-72
2022/07/18 00:37:53;;;;;;;;;4.33;4.33;;;;;23.53;38.52;101703.72;5061514;28;45374;-72
2022/07/18 00:40:18;;;;;;;;;5.00;5.00;;;;;23.47;38.48;101696.53;5050677;28;45568;-72
2022/07/18 00:42:44;;;;;;;;;6.33;5.33;;;;;23.43;38.24;101698.88;5061778;28;45227;-72
2022/07/18 00:45:10;;;;;;;;;5.00;5.00;;;;;23.39;38.35;101695.00;5061809;28;45389;-72
2022/07/18 00:47:35;;;;;;;;;5.00;5.00;;;;;23.36;38.40;101700.88;5061601;28;45609;-72
2022/07/18 00:50:03;;;;;;;;;5.00;5.00;;;;;23.30;38.73;101691.81;5043357;28;45467;-72
2022/07/18 00:52:29;;;;;;;;;7.00;6.00;;;;;23.25;39.05;101699.84;5052420;28;45906;-72
2022/07/18 00:54:54;;;;;;;;;5.67;5.67;;;;;23.17;39.67;101692.88;5042945;28;46976;-72
2022/07/18 00:57:19;;;;;;;;;6.67;6.00;;;;;23.16;39.50;101705.59;5061440;28;45423;-72
2022/07/18 01:02:29;;;;;;;;;6.67;6.67;;;;;23.05;39.42;101693.69;5048178;28;45400;-72
2022/07/18 01:04:54;;;;;;;;;7.33;6.67;;;;;23.01;39.80;101706.06;5061511;28;45289;-72
2022/07/18 01:07:20;;;;;;;;;11.00;7.67;;;;;22.98;40.53;101697.59;5061194;28;45410;-72
2022/07/18 01:09:45;;;;;;;;;7.00;7.00;;;;;22.92;40.77;101697.47;5050102;28;45454;-72
2022/07/18 01:12:11;;;;;;;;;7.00;5.00;;;;;22.93;41.05;101695.59;5061073;28;45640;-72
2022/07/18 01:14:37;;;;;;;;;6.00;6.00;;;;;22.87;41.01;101702.78;5061513;28;46331;-72
2022/07/18 01:17:02;;;;;;;;;6.33;6.33;;;;;22.83;40.61;101704.28;5072597;28;45281;-72
2022/07/18 01:19:27;;;;;;;;;8.00;8.00;;;;;22.80;40.98;101708.28;5043324;28;45304;-72
2022/07/18 01:21:53;;;;;;;;;6.00;6.00;;;;;22.74;41.53;101697.56;5061141;28;45348;-72
2022/07/18 01:24:18;;;;;;;;;6.00;6.00;;;;;22.69;41.51;101698.28;5060783;28;46336;-72
2022/07/18 01:26:44;;;;;;;;;7.33;6.00;;;;;22.66;41.43;101698.72;5061085;28;45340;-72
2022/07/18 01:29:09;;;;;;;;;8.00;7.67;;;;;22.63;41.30;101696.50;5043112;28;45313;-72
2022/07/18 01:31:34;;;;;;;;;8.00;7.33;;;;;22.56;41.29;101689.25;5060879;28;45383;-72
2022/07/18 01:34:00;;;;;;;;;6.67;6.67;;;;;22.56;41.71;101694.66;5060755;28;46470;-72
2022/07/18 01:36:26;;;;;;;;;8.00;8.00;;;;;22.53;41.62;101695.13;5060950;28;45352;-72
2022/07/18 01:38:51;;;;;;;;;8.33;6.67;;;;;22.47;42.15;101687.13;5060582;28;45312;-72
2022/07/18 01:41:17;;;;;;;;;6.00;6.00;;;;;22.44;42.29;101696.53;5042508;28;47136;-72
2022/07/18 01:43:43;;;;;;;;;6.00;6.00;;;;;22.41;42.14;101692.41;5060941;28;45323;-72
2022/07/18 01:46:12;;;;;;;;;5.67;5.67;;;;;22.36;41.96;101696.84;5060432;28;45567;-72
2022/07/18 01:48:39;;;;;;;;;5.67;5.67;;;;;22.35;42.26;101690.59;5060184;28;45333;-72
2022/07/18 01:51:05;;;;;;;;;7.00;7.00;;;;;22.29;42.19;101691.53;5060245;28;45444;-72
2022/07/18 01:53:30;;;;;;;;;7.00;6.67;;;;;22.26;42.85;101690.13;5060643;28;45304;-72
2022/07/18 01:55:55;;;;;;;;;7.00;6.33;;;;;22.26;43.41;101694.69;5060302;28;45292;-72
2022/07/18 01:58:20;;;;;;;;;5.00;5.00;;;;;22.23;43.20;101690.56;5060511;28;45479;-72
2022/07/18 02:00:46;;;;;;;;;6.00;5.00;;;;;22.19;43.05;101690.22;5042309;28;45717;-72
2022/07/18 02:03:11;;;;;;;;;6.00;6.00;;;;;22.18;43.02;101696.66;5060608;28;45472;-72
2022/07/18 02:05:37;;;;;;;;;8.67;8.67;;;;;22.12;42.83;101686.75;5057497;28;45772;-72
2022/07/18 02:08:02;;;;;;;;;6.00;6.00;;;;;22.09;43.04;101676.41;5060400;28;45380;-72
2022/07/18 02:10:28;;;;;;;;;5.33;5.33;;;;;22.06;43.42;101674.97;5059942;28;45280;-72
2022/07/18 02:12:53;;;;;;;;;7.00;7.00;;;;;22.02;43.41;101671.06;5060321;28;45284;-72
2022/07/18 02:15:18;;;;;;;;;7.33;6.33;;;;;21.98;43.28;101671.75;5060506;28;45329;-72
2022/07/18 02:17:44;;;;;;;;;7.00;7.00;;;;;21.96;43.28;101663.88;5072039;28;45439;-72
2022/07/18 02:20:11;;;;;;;;;4.33;4.00;;;;;21.96;42.82;101666.56;5060172;28;45548;-72
2022/07/18 02:22:36;;;;;;;;;8.00;8.00;;;;;21.91;43.14;101669.97;5056940;28;47473;-72
2022/07/18 02:25:02;;;;;;;;;8.00;8.00;;;;;21.90;42.96;101673.72;5041721;28;45333;-72
2022/07/18 02:27:28;;;;;;;;;4.33;4.33;;;;;21.81;43.21;101665.09;5041987;28;45428;-72
2022/07/18 02:29:54;;;;;;;;;7.00;7.00;;;;;21.83;43.28;101670.28;5060088;28;45579;-72
2022/07/18 02:32:20;;;;;;;;;5.33;5.33;;;;;21.77;43.16;101669.31;5059922;28;46628;-72
2022/07/18 02:34:46;;;;;;;;;7.00;7.00;;;;;21.74;43.52;101668.91;5060044;28;45241;-72
2022/07/18 02:37:12;;;;;;;;;7.67;7.00;;;;;21.70;43.52;101665.84;5060035;28;45363;-72
2022/07/18 02:39:37;;;;;;;;;9.00;7.00;;;;;21.67;44.15;101669.81;5059428;28;45456;-72
2022/07/18 02:42:04;;;;;;;;;7.67;6.67;;;;;21.70;43.67;101673.97;5059857;28;46247;-72
2022/07/18 02:44:29;;;;;;;;;6.00;6.00;;;;;21.66;44.47;101672.75;5041647;28;45320;-72
2022/07/18 02:46:54;;;;;;;;;6.33;6.33;;;;;21.67;44.47;101679.81;5059955;28;45374;-72
2022/07/18 02:49:29;;;;;;;;;5.67;5.67;;;;;21.65;44.90;101673.81;5041432;28;46902;-72
2022/07/18 02:52:04;;;;;;;;;6.67;6.00;;;;;21.59;45.34;101674.69;5059749;28;45397;-72
2022/07/18 02:54:32;;;;;;;;;8.67;8.67;;;;;21.55;44.91;101682.47;5059154;28;45402;-72
2022/07/18 02:56:57;;;;;;;;;6.00;6.00;;;;;21.50;44.50;101682.28;5059773;28;45358;-72
2022/07/18 02:59:24;;;;;;;;;6.67;5.67;;;;;21.52;44.86;101691.03;5059377;28;45284;-72
2022/07/18 03:01:50;;;;;;;;;7.67;6.00;;;;;21.48;45.49;101687.94;5059477;28;46215;-72
2022/07/18 03:04:16;;;;;;;;;8.33;8.33;;;;;21.49;45.11;101689.56;5059609;28;45423;-72
2022/07/18 03:06:41;;;;;;;;;8.00;6.67;;;;;21.47;44.25;101680.88;5041546;28;45254;-72
2022/07/18 03:09:08;;;;;;;;;8.67;7.00;;;;;21.49;44.85;101694.16;5040861;28;47219;-72
2022/07/18 03:11:33;;;;;;;;;8.00;7.00;;;;;21.42;45.07;101692.38;5059205;28;45372;-72
2022/07/18 03:13:58;;;;;;;;;7.00;7.00;;;;;21.49;44.49;101696.88;5041159;28;45366;-72
2022/07/18 03:16:24;;;;;;;;;7.67;7.00;;;;;21.43;44.74;101685.09;5066281;28;45490;-72
2022/07/18 03:18:49;;;;;;;;;7.00;5.67;;;;;21.44;45.53;101687.56;5045742;28;47297;-72
2022/07/18 03:21:15;;;;;;;;;8.33;8.33;;;;;21.34;45.75;101676.41;5059417;28;45530;-72
2022/07/18 03:23:40;;;;;;;;;9.33;7.33;;;;;21.26;45.63;101679.44;5041256;28;45359;-72
2022/07/18 03:26:06;;;;;;;;;7.67;7.00;;;;;21.18;45.63;101673.25;5058923;28;45391;-72
2022/07/18 03:28:31;;;;;;;;;8.00;6.33;;;;;21.17;45.46;101673.50;5048896;28;45801;-72
2022/07/18 03:30:58;;;;;;;;;8.00;8.00;;;;;21.15;45.38;101675.56;5058836;28;45367;-72
2022/07/18 03:33:24;;;;;;;;;9.67;9.33;;;;;21.14;45.61;101671.22;5041188;28;45808;-72
2022/07/18 03:35:50;;;;;;;;;6.00;6.00;;;;;21.16;45.27;101675.34;5058946;28;45356;-72
2022/07/18 03:38:15;;;;;;;;;8.00;8.00;;;;;21.16;45.17;101663.75;5058964;28;45364;-72
2022/07/18 03:40:40;;;;;;;;;7.00;7.00;;;;;21.22;45.35;101672.81;5058797;28;45793;-72
2022/07/18 03:43:05;;;;;;;;;6.00;6.00;;;;;21.14;45.85;101650.44;5058937;28;45249;-72
2022/07/18 03:45:31;;;;;;;;;9.33;9.00;;;;;21.10;46.13;101648.41;5059205;28;45392;-72
2022/07/18 03:47:56;;;;;;;;;10.00;9.00;;;;;21.06;45.69;101654.25;5058653;28;45344;-72
2022/07/18 03:50:22;;;;;;;;;6.67;6.67;;;;;21.03;46.13;101654.69;5058699;28;46409;-72
2022/07/18 03:52:47;;;;;;;;;7.00;7.00;;;;;21.04;46.09;101664.44;5058750;28;45150;-72
2022/07/18 03:55:13;;;;;;;;;6.00;6.00;;;;;21.10;45.95;101661.91;5044227;28;45300;-72
2022/07/18 03:57:38;;;;;;;;;9.00;7.67;;;;;21.10;46.45;101661.91;5059110;28;45228;-72
2022/07/18 04:00:08;;;;;;;;;9.33;9.00;;;;;21.15;46.21;101657.50;5055989;28;46927;-72
2022/07/18 04:02:38;;;;;;;;;9.00;9.00;;;;;21.12;46.73;101646.28;5059049;28;45525;-72
2022/07/18 04:05:04;;;;;;;;;8.67;8.00;;;;;21.11;46.47;101648.19;5058768;28;45164;-72
2022/07/18 04:07:29;;;;;;;;;7.33;7.33;;;;;21.07;46.49;101660.47;5058401;28;45341;-72
2022/07/18 04:09:54;;;;;;;;;6.33;6.33;;;;;21.01;46.23;101655.97;5058613;28;46552;-72
2022/07/18 04:12:20;;;;;;;;;5.67;5.67;;;;;20.95;45.99;101660.38;5043761;28;52048;-72
2022/07/18 04:14:45;;;;;;;;;7.00;7.00;;;;;20.94;46.69;101666.84;5062494;28;45330;-72
2022/07/18 04:17:10;;;;;;;;;5.67;5.67;;;;;20.96;46.79;101670.16;5073438;28;45525;-72
2022/07/18 04:19:35;;;;;;;;;6.67;6.00;;;;;20.94;46.98;101664.97;5062122;28;49146;-72
2022/07/18 04:22:01;;;;;;;;;5.00;5.00;;;;;20.97;46.52;101674.50;5054242;28;45814;-72
2022/07/18 04:24:26;;;;;;;;;4.67;4.67;;;;;20.95;46.63;101668.47;5061892;28;45430;-72
2022/07/18 04:26:51;;;;;;;;;7.00;7.00;;;;;20.96;46.73;101661.22;5061949;28;45312;-72
2022/07/18 04:29:17;;;;;;;;;5.33;5.33;;;;;20.98;46.97;101661.81;5061879;28;45454;-72
2022/07/18 04:31:42;;;;;;;;;7.00;6.00;;;;;20.93;47.09;101647.13;5049882;28;46108;-72
2022/07/18 04:34:07;;;;;;;;;7.33;6.00;;;;;20.91;46.93;101649.19;5062202;28;45295;-72
2022/07/18 04:36:33;;;;;;;;;6.00;4.67;;;;;20.83;47.14;101652.13;5061745;28;47321;-72
2022/07/18 04:38:58;;;;;;;;;7.33;7.33;;;;;20.79;46.87;101661.72;5043163;28;48423;-74
2022/07/18 04:41:24;;;;;;;;;8.00;8.00;;;;;20.83;46.51;101662.13;5061724;28;45371;-74
2022/07/18 04:43:51;;;;;;;;;8.67;6.00;;;;;20.84;47.15;101661.06;5062167;28;45468;-74
2022/07/18 04:46:16;;;;;;;;;6.67;6.67;;;;;20.81;47.15;101652.34;5061577;28;45252;-74
2022/07/18 04:48:41;;;;;;;;;5.00;5.00;;;;;20.84;47.24;101652.97;5043635;28;48372;-74
2022/07/18 04:51:07;;;;;;;;;5.00;5.00;;;;;20.86;47.79;101649.00;5061451;28;45232;-74
2022/07/18 04:53:32;;;;;;;;;8.67;8.00;;;;;20.85;47.29;101638.41;5061893;28;45263;-74
2022/07/18 04:55:57;;;;;;;;;4.00;4.00;;;;;20.89;47.46;101631.53;5061342;28;45329;-74
2022/07/18 04:58:23;;;;;;;;;6.67;6.67;;;;;20.86;47.21;101624.69;5061184;28;45276;-73
2022/07/18 05:00:48;;;;;;;;;5.33;5.33;;;;;20.88;47.47;101629.84;5061575;28;45222;-74
2022/07/18 05:03:14;;;;;;;;;5.33;5.33;;;;;20.94;47.42;101634.41;5061563;28;46014;-74
2022/07/18 05:05:39;;;;;;;;;6.00;6.00;;;;;20.97;47.87;101635.84;5058862;28;45840;-72
2022/07/18 05:08:06;;;;;;;;;4.67;4.67;;;;;20.97;47.77;101627.72;5043115;28;48412;-72
2022/07/18 05:10:32;;;;;;;;;5.33;5.33;;;;;21.03;47.68;101629.53;5042907;28;45475;-72
2022/07/18 05:12:58;;;;;;;;;7.67;7.67;;;;;21.02;47.83;101617.09;5043162;28;45257;-72
2022/07/18 05:15:24;;;;;;;;;6.00;5.00;;;;;21.04;48.11;101613.09;5061005;28;45377;-72
2022/07/18 05:17:51;;;;;;;;;7.00;7.00;;;;;21.09;48.35;101615.13;5054412;28;46392;-72
2022/07/18 05:20:19;;;;;;;;;7.00;6.00;;;;;21.09;47.78;101601.63;5060999;28;45299;-72
2022/07/18 05:22:45;;;;;;;;;6.33;5.00;;;;;21.13;48.24;101593.91;5059674;28;45431;-72
2022/07/18 05:25:11;;;;;;;;;8.00;8.00;;;;;21.14;47.94;101588.28;5060988;28;45339;-72
2022/07/18 05:27:37;;;;;;;;;7.33;7.33;;;;;21.22;48.27;101597.94;5060885;28;45356;-72
2022/07/18 05:30:05;;;;;;;;;7.33;7.33;;;;;21.25;48.44;101585.88;5061167;28;45392;-72
2022/07/18 05:32:30;;;;;;;;;6.00;6.00;;;;;21.28;48.54;101596.25;5060841;28;45433;-72
2022/07/18 05:34:55;;;;;;;;;5.67;5.67;;;;;21.28;48.14;101597.06;5061026;28;45616;-72
2022/07/18 05:37:21;;;;;;;;;6.33;6.00;;;;;21.35;48.88;101607.81;5060731;28;46686;-72
2022/07/18 05:39:47;;;;;;;;;8.00;7.00;;;;;21.44;47.96;101624.53;5059020;28;45801;-72
2022/07/18 05:42:12;;;;;;;;;10.00;9.00;;;;;21.50;47.97;101628.22;5061013;28;45347;-72
2022/07/18 05:44:37;;;;;;;;;7.67;6.00;;;;;21.58;47.81;101638.75;5060520;28;45280;-72
2022/07/18 05:47:03;;;;;;;;;8.67;7.67;;;;;21.67;48.00;101648.19;5060653;28;45298;-72
2022/07/18 05:49:28;;;;;;;;;9.67;9.00;;;;;21.74;48.19;101648.09;5060409;28;45337;-72
2022/07/18 05:51:54;;;;;;;;;6.00;6.00;;;;;21.82;47.14;101649.72;5060931;28;45265;-72
2022/07/18 05:54:19;;;;;;;;;6.33;6.33;;;;;21.89;48.59;101641.50;5060454;28;45383;-72
2022/07/18 05:56:51;;;;;;;;;5.67;5.67;;;;;21.99;48.54;101644.47;5060302;28;45571;-72
2022/07/18 05:59:20;;;;;;;;;7.33;5.33;;;;;22.06;48.56;101649.81;5060542;28;45407;-72
2022/07/18 06:01:46;;;;;;;;;6.00;6.00;;;;;22.09;48.34;101643.09;5060392;28;45419;-72
2022/07/18 06:04:12;;;;;;;;;7.00;7.00;;;;;22.13;48.21;101645.13;5060434;28;45489;-72
2022/07/18 06:06:38;;;;;;;;;6.33;6.00;;;;;22.22;48.25;101636.66;5051765;28;45691;-72
2022/07/18 06:09:04;;;;;;;;;7.33;6.00;;;;;22.29;48.76;101640.91;5059929;28;45423;-72
2022/07/18 06:11:29;;;;;;;;;7.67;7.67;;;;;22.34;47.68;101634.81;5060446;28;45354;-72
2022/07/18 06:13:55;;;;;;;;;4.00;4.00;;;;;22.40;47.20;101641.19;5041974;28;46386;-72
2022/07/18 06:16:20;;;;;;;;;6.33;6.33;;;;;22.42;46.29;101636.38;5048370;28;47250;-72
2022/07/18 06:18:45;;;;;;;;;7.00;7.00;;;;;22.60;46.22;101645.47;5065397;28;45351;-72
2022/07/18 06:21:11;;;;;;;;;6.33;6.33;;;;;22.70;46.62;101643.03;5060492;28;45299;-72
2022/07/18 06:23:36;;;;;;;;;7.00;6.67;;;;;22.79;45.86;101646.19;5059949;28;45288;-72
2022/07/18 06:26:02;;;;;;;;;6.67;5.33;;;;;22.79;45.44;101638.91;5041882;28;48494;-72
2022/07/18 06:28:28;;;;;;;;;7.67;5.67;;;;;22.83;44.46;101621.13;5060205;28;45316;-72
2022/07/18 06:30:54;;;;;;;;;4.00;4.00;;;;;22.97;44.19;101629.00;5060097;28;45310;-73
2022/07/18 06:33:19;;;;;;;;;7.00;5.00;;;;;23.05;44.24;101631.34;5038195;28;46134;-73
2022/07/18 06:35:46;;;;;;;;;8.00;7.33;;;;;23.17;44.75;101647.59;5054271;28;45600;-72
2022/07/18 06:38:12;;;;;;;;;8.00;8.00;;;;;23.23;44.78;101639.59;5059958;28;45311;-73
2022/07/18 06:40:37;;;;;;;;;6.00;6.00;;;;;23.33;44.64;101643.34;5059849;28;45296;-74
2022/07/18 06:43:02;;;;;;;;;7.33;6.00;;;;;23.41;44.04;101635.94;5059631;28;45596;-75
2022/07/18 06:45:28;;;;;;;;;6.33;6.33;;;;;23.47;44.18;101640.41;5059789;28;48809;-74
2022/07/18 06:47:53;;;;;;;;;6.00;5.00;;;;;23.55;43.46;101631.88;5059715;28;45288;-74
2022/07/18 06:50:18;;;;;;;;;6.67;6.67;;;;;23.66;44.35;101630.19;5059964;28;45300;-73
2022/07/18 06:52:45;;;;;;;;;7.67;7.67;;;;;23.69;43.48;101632.44;5059509;28;45422;-72
2022/07/18 06:55:12;;;;;;;;;6.33;5.33;;;;;23.80;43.60;101643.47;5044498;28;47050;-73
2022/07/18 06:57:38;;;;;;;;;6.00;6.00;;;;;23.89;43.19;101641.19;5059653;28;45339;-73
2022/07/18 07:00:08;;;;;;;;;4.33;3.67;;;;;23.99;43.21;101645.97;5059722;28;45609;-74
2022/07/18 07:02:33;;;;;;;;;4.33;3.67;;;;;24.05;42.75;101648.56;5059514;28;45465;-73
2022/07/18 07:04:58;;;;;;;;;6.33;5.67;;;;;24.13;42.63;101641.09;5059440;28;45341;-73
2022/07/18 07:07:24;;;;;;;;;5.00;5.00;;;;;24.22;42.54;101642.38;5059475;28;45358;-73
2022/07/18 07:09:49;;;;;;;;;6.00;6.00;;;;;24.27;42.70;101636.22;5059291;28;45325;-73
2022/07/18 07:12:14;;;;;;;;;5.00;5.00;;;;;24.36;42.32;101639.34;5059165;28;53155;-73
2022/07/18 07:14:40;;;;;;;;;5.00;5.00;;;;;24.42;42.84;101635.63;5047172;28;47001;-73
2022/07/18 07:17:05;;;;;;;;;5.00;5.00;;;;;24.54;42.54;101646.44;5070788;28;45368;-73
2022/07/18 07:19:30;;;;;;;;;4.67;4.67;;;;;24.58;42.54;101644.84;5059665;28;45538;-73
2022/07/18 07:21:56;;;;;;;;;4.67;4.67;;;;;24.68;42.31;101645.00;5055417;28;45260;-73
2022/07/18 07:24:22;;;;;;;;;7.00;5.00;;;;;24.77;41.91;101644.59;5058876;28;46307;-73
2022/07/18 07:26:48;;;;;;;;;6.33;6.00;;;;;24.88;41.84;101641.00;5058979;28;45378;-73
2022/07/18 07:29:14;;;;;;;;;5.00;5.00;;;;;24.95;41.81;101635.38;5059197;28;45363;-73
2022/07/18 07:31:40;;;;;;;;;5.00;5.00;;;;;25.04;41.72;101635.75;5053227;28;46108;-73
2022/07/18 07:34:06;;;;;;;;;5.33;5.33;;;;;25.16;41.09;101632.94;5059048;28;46079;-73
2022/07/18 07:36:31;;;;;;;;;7.00;7.00;;;;;25.25;41.37;101631.41;5044637;28;45404;-73
2022/07/18 07:38:56;;;;;;;;;5.00;5.00;;;;;25.40;40.90;101638.94;5058850;28;45315;-73
2022/07/18 07:41:22;;;;;;;;;6.33;6.33;;;;;25.47;41.00;101636.06;5058804;28;45485;-73
2022/07/18 07:43:48;;;;;;;;;5.67;5.67;;;;;25.56;40.88;101629.06;5040802;28;47238;-73
2022/07/18 07:46:13;;;;;;;;;6.00;5.00;;;;;25.69;40.68;101636.06;5057879;28;45383;-73
2022/07/18 07:48:39;;;;;;;;;6.00;6.00;;;;;25.80;40.66;101626.09;5058872;28;45382;-73
2022/07/18 07:51:05;;;;;;;;;6.00;6.00;;;;;25.92;40.65;101634.09;5058497;28;45405;-74
2022/07/18 07:53:30;;;;;;;;;7.00;7.00;;;;;26.03;40.39;101631.47;5047708;28;47796;-73
2022/07/18 07:55:56;;;;;;;;;7.00;7.00;;;;;26.12;39.95;101627.22;5040373;28;45227;-73
2022/07/18 07:58:21;;;;;;;;;7.67;7.00;;;;;26.26;40.06;101627.63;5059103;28;45422;-73
2022/07/18 08:00:47;;;;;;;;;6.00;6.00;;;;;26.37;40.15;101619.56;5040404;28;47458;-73
2022/07/18 08:03:12;;;;;;;;;6.33;6.00;;;;;26.51;39.80;101618.00;5058392;28;46332;-73
2022/07/18 08:05:44;;;;;;;;;6.00;6.00;;;;;26.66;39.47;101616.50;5058526;28;45141;-74
2022/07/18 08:08:10;;;;;;;;;7.00;7.00;;;;;26.77;38.58;101609.19;5058900;28;45345;-74
2022/07/18 08:10:35;;;;;;;;;7.33;6.67;;;;;26.87;38.05;101594.81;5058138;28;45239;-74
2022/07/18 08:13:01;;;;;;;;;8.00;8.00;;;;;27.07;37.89;101600.38;5058428;28;45485;-73
2022/07/18 08:15:27;;;;;;;;;10.00;10.00;;;;;27.21;38.45;101589.00;5058160;28;45349;-74
2022/07/18 08:17:52;;;;;;;;;8.00;7.67;;;;;27.33;36.95;101597.75;5058652;28;45346;-74
2022/07/18 08:20:17;;;;;;;;;7.33;7.33;;;;;27.49;37.00;101595.06;5058693;28;45447;-72
2022/07/18 08:22:55;;;;;;;;;8.33;8.00;;;;;27.72;36.57;101603.91;5055184;28;48006;-73
2022/07/18 08:25:21;;;;;;;;;5.00;5.00;;;;;27.82;36.40;101603.06;5046220;28;45390;-72
2022/07/18 08:27:47;;;;;;;;;8.33;6.67;;;;;27.97;36.79;101602.28;5056552;28;45311;-73
2022/07/18 08:30:12;;;;;;;;;11.00;9.00;;;;;28.12;35.84;101609.66;5058288;28;45428;-73
2022/07/18 08:32:37;;;;;;;;;8.67;8.67;;;;;28.21;35.96;101594.38;5057943;28;46211;-73
2022/07/18 08:35:04;;;;;;;;;8.67;8.67;;;;;28.34;35.93;101598.47;5036917;28;45612;-73
2022/07/18 08:37:29;;;;;;;;;7.33;7.33;;;;;28.44;36.06;101586.72;5035162;28;45396;-74
2022/07/18 08:39:55;;;;;;;;;8.00;8.00;;;;;28.59;36.25;101591.34;5057786;28;45551;-74
2022/07/18 08:42:25;;;;;;;;;8.00;8.00;;;;;28.71;36.46;101591.06;5058295;28;45384;-74
2022/07/18 08:44:52;;;;;;;;;9.00;7.00;;;;;28.79;35.95;101589.63;5058101;28;45828;-73
2022/07/18 08:47:17;;;;;;;;;7.33;7.33;;;;;28.88;35.94;101587.16;5058051;28;45268;-74
2022/07/18 08:49:43;;;;;;;;;7.00;7.00;;;;;29.00;35.98;101583.31;5037730;28;46042;-74
2022/07/18 08:52:09;;;;;;;;;6.00;6.00;;;;;29.08;35.17;101582.72;5040021;28;47002;-73
2022/07/18 08:54:35;;;;;;;;;7.00;7.00;;;;;29.17;35.11;101588.44;5057623;28;45391;-73
2022/07/18 08:57:01;;;;;;;;;7.00;6.33;;;;;29.28;34.18;101592.78;5060272;28;45805;-74
2022/07/18 08:59:26;;;;;;;;;6.00;6.00;;;;;29.38;34.07;101591.09;5061406;28;45157;-73
2022/07/18 09:01:52;;;;;;;;;7.67;7.67;;;;;29.46;34.39;101585.00;5061326;28;45414;-74
2022/07/18 09:04:37;;;;;;;;;8.00;8.00;;;;;29.63;33.69;101586.56;5061633;28;45419;-74
2022/07/18 09:07:04;;;;;;;;;8.00;8.00;;;;;29.70;33.99;101593.38;5056511;28;45305;-74
2022/07/18 09:09:30;;;;;;;;;7.33;7.33;;;;;29.82;33.31;101603.16;5039801;28;46890;-75
2022/07/18 09:12:01;;;;;;;;;7.00;7.00;;;;;29.89;33.21;101595.41;5055394;28;45723;-74
2022/07/18 09:14:38;;;;;;;;;7.67;7.67;;;;;29.99;33.01;101595.34;5061564;28;45746;-74
2022/07/18 09:17:09;;;;;;;;;7.67;7.67;;;;;30.09;33.04;101605.41;5072958;28;45229;-75
2022/07/18 09:19:36;;;;;;;;;6.00;6.00;;;;;30.19;31.92;101603.69;5061496;28;45338;-75
2022/07/18 09:22:19;;;;;;;;;8.33;7.00;;;;;30.32;32.10;101600.28;5053379;28;48204;-74
2022/07/18 09:24:53;;;;;;;;;6.00;5.67;;;;;30.42;32.57;101601.28;5048700;28;45344;-75
2022/07/18 09:27:34;;;;;;;;;7.67;7.00;;;;;30.49;31.85;101597.13;5061044;28;45597;-74
2022/07/18 09:30:20;;;;;;;;;7.67;7.67;;;;;30.67;31.77;101607.66;5061077;28;45472;-73
2022/07/18 09:33:10;;;;;;;;;8.33;7.33;;;;;30.72;31.03;101596.59;5050182;28;47363;-74
2022/07/18 09:35:42;;;;;;;;;7.33;7.33;;;;;30.88;31.19;101607.44;5053506;28;45365;-74
2022/07/18 09:38:10;;;;;;;;;7.00;7.00;;;;;30.94;30.24;101595.31;5061097;28;45478;-74
2022/07/18 09:40:41;;;;;;;;;7.00;7.00;;;;;31.04;30.98;101599.84;5060748;28;45467;-74
2022/07/18 09:43:14;;;;;;;;;7.00;7.00;;;;;31.10;30.10;101583.00;5060596;28;45454;-74
2022/07/18 09:45:46;;;;;;;;;6.67;6.67;;;;;31.21;30.91;101596.59;5051646;28;45277;-74
2022/07/18 09:48:17;;;;;;;;;6.67;6.67;;;;;31.32;30.51;101600.84;5060761;28;45411;-73
2022/07/18 09:50:51;;;;;;;;;5.00;5.00;;;;;31.42;29.70;101599.88;5060680;28;45296;-74
2022/07/18 09:53:25;;;;;;;;;6.67;6.67;;;;;31.48;29.31;101593.22;5060406;28;45396;-74
2022/07/18 09:55:55;;;;;;;;;7.67;7.67;;;;;31.57;29.80;101585.13;5060744;28;45351;-74
2022/07/18 09:58:24;;;;;;;;;7.00;7.00;;;;;31.72;28.30;101594.25;5057904;28;45225;-74
2022/07/18 10:00:51;;;;;;;;;6.00;5.33;;;;;31.78;28.46;101587.53;5042524;28;46182;-74
2022/07/18 10:03:18;;;;;;;;;7.00;7.00;;;;;31.96;29.00;101599.66;5052386;28;47304;-74
2022/07/18 10:05:45;;;;;;;;;6.33;6.33;;;;;32.07;28.71;101589.31;5060039;28;45367;-73
2022/07/18 10:08:13;;;;;;;;;4.67;4.00;;;;;32.27;28.69;101594.75;5049875;28;45284;-74
2022/07/18 10:10:41;;;;;;;;;6.33;6.33;;;;;32.41;27.80;101590.06;5042077;28;47357;-74
2022/07/18 10:13:07;;;;;;;;;3.00;3.00;;;;;32.55;28.46;101587.38;5042118;28;47255;-74
2022/07/18 10:15:36;;;;;;;;;6.33;6.33;;;;;32.74;27.19;101589.22;5060104;28;45451;-74
2022/07/18 10:18:03;;;;;;;;;5.33;5.33;;;;;32.92;27.49;101575.66;5048974;28;45440;-74
2022/07/18 10:20:36;;;;;;;;;6.33;6.33;;;;;33.05;26.17;101572.09;5059944;28;45557;-74
2022/07/18 10:23:19;;;;;;;;;6.67;6.67;;;;;33.24;26.53;101582.97;5041836;28;47292;-75
2022/07/18 10:26:07;;;;;;;;;7.33;6.33;;;;;33.40;26.55;101576.28;5041755;28;45316;-74
2022/07/18 10:28:32;;;;;;;;;5.33;5.33;;;;;33.57;25.45;101572.84;5060480;28;45344;-74
2022/07/18 10:31:18;;;;;;;;;6.33;6.33;;;;;33.75;25.58;101571.88;5041838;28;46013;-75
2022/07/18 10:33:47;;;;;;;;;5.67;5.67;;;;;33.92;25.52;101577.81;5059738;28;46736;-75
2022/07/18 10:36:21;;;;;;;;;6.00;6.00;;;;;34.07;25.37;101571.09;5041695;28;45386;-73
2022/07/18 10:39:07;;;;;;;;;6.00;5.00;;;;;34.29;25.06;101570.25;5049837;28;45392;-74
2022/07/18 10:42:01;;;;;;;;;4.67;4.67;;;;;34.48;25.28;101575.53;5045862;28;45340;-74
2022/07/18 10:44:29;;;;;;;;;4.00;4.00;;;;;34.72;24.19;101568.00;5059548;28;46146;-75
2022/07/18 10:47:05;;;;;;;;;5.00;5.00;;;;;34.87;23.79;101562.03;5046976;28;45314;-75
2022/07/18 10:49:49;;;;;;;;;4.33;4.33;;;;;35.06;23.91;101563.69;5059759;28;45657;-74
2022/07/18 10:52:26;;;;;;;;;6.33;6.33;;;;;35.27;23.10;101563.06;5048643;28;46909;-73
2022/07/18 10:55:22;;;;;;;;;4.67;4.67;;;;;35.46;22.71;101565.50;5059302;28;45758;-73
2022/07/18 10:57:49;;;;;;;;;5.00;5.00;;;;;35.68;22.76;101554.59;5059207;28;45340;-74
2022/07/18 11:00:25;;;;;;;;;4.00;3.67;;;;;35.87;22.70;101562.53;5059742;28;45515;-74
2022/07/18 11:02:59;;;;;;;;;6.00;6.00;;;;;36.05;22.75;101554.19;5060139;28;45292;-74
2022/07/18 11:05:24;;;;;;;;;5.00;5.00;;;;;36.19;21.79;101556.75;5055044;28;48751;-74
2022/07/18 11:08:02;;;;;;;;;5.00;5.00;;;;;36.35;21.74;101554.25;5047407;28;45935;-74
2022/07/18 11:10:50;;;;;;;;;4.33;4.33;;;;;36.51;22.14;101549.78;5059840;28;45293;-75
2022/07/18 11:13:35;;;;;;;;;5.00;5.00;;;;;36.72;21.53;101554.56;5049883;28;45407;-74
2022/07/18 11:16:14;;;;;;;;;4.00;4.00;;;;;36.91;21.80;101538.66;5047800;28;48020;-74
2022/07/18 11:18:40;;;;;;;;;5.00;5.00;;;;;37.09;20.64;101544.88;5065700;28;45344;-74
2022/07/18 11:21:21;;;;;;;;;4.33;4.33;;;;;37.22;20.56;101549.34;5058251;28;45277;-73
2022/07/18 11:23:49;;;;;;;;;4.67;4.67;;;;;37.34;21.08;101539.47;5059119;28;45337;-74
2022/07/18 11:26:20;;;;;;;;;5.00;4.67;;;;;37.47;20.35;101540.34;5059325;28;45373;-74
2022/07/18 11:29:09;;;;;;;;;4.33;4.33;;;;;37.61;19.72;101537.25;5059505;28;45384;-74